Time;durP1;ratioP1;P1;durP2;ratioP2;P2;SDS_P1;SDS_P2;PMS_P1;PMS_P2;Temp;Humidity;BMP_temperature;BMP_pressure;BME280_temperature;BME280_humidity;BME280_pressure;Samples;Min_cycle;Max_cycle;Signal;HPM_P1;HPM_P2
2021/01/02 00:00:08;;;;;;;20.87;8.30;;;;;;;2.86;100.00;97574.19;5075002;28;20205;-84
2021/01/02 00:02:48;;;;;;;17.43;8.83;;;;;;;2.89;100.00;97577.31;5075512;28;20246;-84
2021/01/02 00:05:16;;;;;;;18.50;7.80;;;;;;;2.93;100.00;97575.16;5075723;28;20216;-84
2021/01/02 00:08:17;;;;;;;16.27;8.33;;;;;;;2.88;100.00;97577.47;5075236;28;20588;-83
2021/01/02 00:10:55;;;;;;;18.37;8.43;;;;;;;2.95;100.00;97575.84;5074297;28;20204;-84
2021/01/02 00:13:38;;;;;;;20.40;8.50;;;;;;;2.95;100.00;97586.41;5071483;28;20197;-84
2021/01/02 00:16:50;;;;;;;18.73;9.03;;;;;;;3.03;100.00;97581.94;5073154;28;20208;-84
2021/01/02 00:19:30;;;;;;;19.33;9.03;;;;;;;3.00;100.00;97587.53;5070675;28;20246;-84
2021/01/02 00:22:01;;;;;;;16.53;8.27;;;;;;;3.14;100.00;97571.06;5074751;28;20567;-85
2021/01/02 00:24:36;;;;;;;17.83;7.93;;;;;;;3.10;100.00;97572.38;5072280;28;20685;-83
2021/01/02 00:27:08;;;;;;;16.50;7.53;;;;;;;2.97;100.00;97579.97;5062182;28;20246;-83
2021/01/02 00:30:00;;;;;;;21.43;8.33;;;;;;;3.14;100.00;97572.88;5074111;28;20302;-85
2021/01/02 00:32:40;;;;;;;18.03;8.20;;;;;;;3.11;100.00;97579.28;5075305;28;20203;-83
2021/01/02 00:35:11;;;;;;;16.33;8.30;;;;;;;3.03;100.00;97576.66;5084904;28;20645;-83
2021/01/02 00:37:40;;;;;;;18.17;9.17;;;;;;;3.06;100.00;97576.31;5076845;28;20213;-85
2021/01/02 00:40:10;;;;;;;16.07;7.97;;;;;;;2.75;100.00;97577.94;5072375;28;20270;-83
2021/01/02 00:42:39;;;;;;;18.30;8.70;;;;;;;2.88;100.00;97580.94;5075582;28;20197;-84
2021/01/02 00:45:08;;;;;;;15.40;7.97;;;;;;;2.88;100.00;97570.41;5071744;28;20233;-84
2021/01/02 00:47:37;;;;;;;16.77;8.07;;;;;;;2.94;100.00;97576.81;5075352;28;20227;-84
2021/01/02 00:50:06;;;;;;;17.40;8.37;;;;;;;2.84;100.00;97574.34;5074297;28;20199;-83
2021/01/02 00:52:57;;;;;;;17.50;8.73;;;;;;;2.90;100.00;97578.16;5077899;28;20197;-83
2021/01/02 00:55:54;;;;;;;15.93;8.13;;;;;;;2.96;100.00;97572.22;5075103;28;20200;-84
2021/01/02 00:58:56;;;;;;;18.30;8.17;;;;;;;2.63;100.00;97584.53;5059808;28;20221;-82
2021/01/02 01:01:36;;;;;;;16.53;7.53;;;;;;;2.94;100.00;97579.44;5072687;28;20228;-82
2021/01/02 01:04:21;;;;;;;16.43;8.53;;;;;;;3.01;100.00;97581.25;5073270;28;20197;-84
2021/01/02 01:06:54;;;;;;;16.73;8.57;;;;;;;3.10;100.00;97576.84;5077808;28;20288;-83
2021/01/02 01:09:24;;;;;;;16.87;8.77;;;;;;;3.12;100.00;97580.13;5076907;28;20201;-84
2021/01/02 01:11:54;;;;;;;16.93;8.40;;;;;;;3.13;100.00;97585.25;5080031;28;20293;-83
2021/01/02 01:14:21;;;;;;;14.53;8.00;;;;;;;3.18;100.00;97585.56;5075717;28;20207;-84
2021/01/02 01:16:51;;;;;;;14.83;8.03;;;;;;;2.98;100.00;97584.25;5062517;28;20243;-84
2021/01/02 01:19:20;;;;;;;16.63;8.40;;;;;;;2.99;100.00;97587.69;5075922;28;20290;-84
2021/01/02 01:21:51;;;;;;;15.47;7.80;;;;;;;3.15;100.00;97593.00;5075208;28;20254;-83
2021/01/02 01:24:24;;;;;;;14.73;7.93;;;;;;;3.24;100.00;97589.34;5072949;28;20607;-84
2021/01/02 01:27:04;;;;;;;14.70;7.57;;;;;;;3.24;100.00;97589.34;5066984;28;20625;-83
2021/01/02 01:29:42;;;;;;;14.93;8.30;;;;;;;3.27;100.00;97595.13;5073824;28;20209;-83
2021/01/02 01:32:09;;;;;;;18.20;7.77;;;;;;;3.15;100.00;97604.34;5075784;28;20196;-83
2021/01/02 01:34:38;;;;;;;14.70;7.83;;;;;;;3.17;100.00;97601.53;5075031;28;20197;-84
2021/01/02 01:37:07;;;;;;;17.17;8.03;;;;;;;3.24;100.00;97606.00;5076085;28;20262;-84
2021/01/02 01:39:35;;;;;;;16.90;8.40;;;;;;;3.11;100.00;97610.13;5076070;28;20215;-83
2021/01/02 01:42:03;;;;;;;17.07;8.87;;;;;;;3.26;100.00;97614.56;5075036;28;20572;-83
2021/01/02 01:44:52;;;;;;;16.00;8.53;;;;;;;3.43;100.00;97603.03;5072534;28;20796;-83
2021/01/02 01:47:21;;;;;;;15.43;8.20;;;;;;;3.48;100.00;97603.34;5076641;28;20244;-83
2021/01/02 01:50:24;;;;;;;20.80;8.83;;;;;;;3.59;100.00;97607.44;5076509;28;20207;-83
2021/01/02 01:53:39;;;;;;;17.63;8.97;;;;;;;3.61;100.00;97608.13;5068121;28;20706;-84
2021/01/02 01:56:15;;;;;;;15.97;8.00;;;;;;;3.32;100.00;97603.38;5078680;28;20198;-83
2021/01/02 01:59:07;;;;;;;15.80;8.53;;;;;;;3.55;100.00;97603.50;5084532;28;20205;-83
2021/01/02 02:01:38;;;;;;;16.73;8.07;;;;;;;3.38;100.00;97604.50;5083309;28;20201;-83
2021/01/02 02:04:49;;;;;;;16.13;9.30;;;;;;;3.53;100.00;97600.19;5076465;28;20208;-83
2021/01/02 02:07:19;;;;;;;17.67;8.63;;;;;;;3.42;100.00;97601.38;5057354;28;20232;-83
2021/01/02 02:09:58;;;;;;;14.73;8.43;;;;;;;3.53;100.00;97601.03;5075522;28;20576;-84
2021/01/02 02:12:32;;;;;;;18.83;8.73;;;;;;;3.47;100.00;97601.72;5068414;28;20304;-84
2021/01/02 02:15:13;;;;;;;15.43;8.50;;;;;;;3.45;100.00;97593.13;5073339;28;20196;-84
2021/01/02 02:17:44;;;;;;;15.17;7.80;;;;;;;3.67;100.00;97592.41;5076149;28;20228;-82
2021/01/02 02:20:13;;;;;;;16.03;8.73;;;;;;;3.62;100.00;97597.41;5086557;28;20202;-84
2021/01/02 02:22:41;;;;;;;18.40;8.67;;;;;;;3.36;100.00;97599.38;5091904;28;20177;-84
2021/01/02 02:25:11;;;;;;;16.93;8.70;;;;;;;3.43;100.00;97604.81;5079824;28;20267;-82
2021/01/02 02:27:40;;;;;;;15.60;8.57;;;;;;;3.54;100.00;97594.75;5076784;28;20225;-84
2021/01/02 02:30:10;;;;;;;17.50;7.90;;;;;;;3.47;100.00;97601.72;5076699;28;20652;-83
2021/01/02 02:32:38;;;;;;;12.83;7.33;;;;;;;3.39;100.00;97600.88;5077803;28;20239;-83
2021/01/02 02:35:08;;;;;;;16.17;8.13;;;;;;;3.51;100.00;97594.28;5080095;28;20222;-84
2021/01/02 02:37:41;;;;;;;16.77;8.67;;;;;;;3.42;100.00;97597.91;5080851;28;20423;-84
2021/01/02 02:40:10;;;;;;;15.43;7.90;;;;;;;3.41;100.00;97598.91;5080481;28;20243;-84
2021/01/02 02:42:40;;;;;;;18.40;8.63;;;;;;;3.54;100.00;97594.75;5079086;28;20278;-84
2021/01/02 02:45:13;;;;;;;15.60;8.93;;;;;;;3.60;100.00;97599.38;5078559;28;20272;-83
2021/01/02 02:47:41;;;;;;;19.13;9.73;;;;;;;3.39;100.00;97599.06;5096577;28;20277;-83
2021/01/02 02:50:19;;;;;;;15.70;7.87;;;;;;;3.44;100.00;97602.03;5090824;28;20221;-84
2021/01/02 02:53:05;;;;;;;14.63;7.93;;;;;;;3.43;100.00;97603.03;5095692;28;20225;-84
2021/01/02 02:55:34;;;;;;;16.30;8.17;;;;;;;3.34;100.00;97597.91;5097292;28;20211;-83
2021/01/02 02:58:03;;;;;;;15.37;8.27;;;;;;;3.49;100.00;97605.00;5097802;28;20268;-83
2021/01/02 03:00:30;;;;;;;16.27;9.17;;;;;;;3.35;100.00;97604.84;5095273;28;20187;-84
2021/01/02 03:02:56;;;;;;;14.73;8.23;;;;;;;3.23;100.00;97606.16;5097839;28;20199;-84
2021/01/02 03:05:23;;;;;;;15.80;8.80;;;;;;;3.34;100.00;97611.09;5096636;28;20220;-84
2021/01/02 03:07:51;;;;;;;13.57;7.93;;;;;;;3.26;100.00;97611.91;5098202;28;20272;-84
2021/01/02 03:10:20;;;;;;;16.57;9.23;;;;;;;3.32;100.00;97605.16;5087715;28;20202;-84
2021/01/02 03:12:48;;;;;;;15.27;8.00;;;;;;;3.13;100.00;97606.31;5098109;28;20258;-84
2021/01/02 03:15:17;;;;;;;15.60;9.13;;;;;;;2.99;100.00;97611.41;5097414;28;20203;-83
2021/01/02 03:17:44;;;;;;;14.97;8.00;;;;;;;3.17;100.00;97617.38;5096964;28;20260;-83
2021/01/02 03:20:13;;;;;;;17.27;9.00;;;;;;;3.55;100.00;97611.44;5097004;28;20226;-84
2021/01/02 03:22:41;;;;;;;18.83;8.70;;;;;;;3.64;100.00;97611.22;5087653;28;20278;-83
2021/01/02 03:25:09;;;;;;;15.13;8.17;;;;;;;3.59;100.00;97616.19;5096213;28;20204;-83
2021/01/02 03:27:37;;;;;;;17.17;9.03;;;;;;;3.53;100.00;97606.31;5096847;28;20236;-84
2021/01/02 03:30:05;;;;;;;16.90;8.53;;;;;;;3.48;100.00;97608.63;5095633;28;20248;-84
2021/01/02 03:32:33;;;;;;;16.70;9.07;;;;;;;3.59;100.00;97603.00;5093108;28;20225;-83
2021/01/02 03:35:00;;;;;;;16.87;9.50;;;;;;;3.34;100.00;97600.53;5096224;28;20201;-84
2021/01/02 03:37:27;;;;;;;21.10;9.17;;;;;;;3.58;100.00;97596.09;5093890;28;20285;-83
2021/01/02 03:39:54;;;;;;;18.23;8.30;;;;;;;3.55;100.00;97592.97;5089495;28;20268;-83
2021/01/02 03:42:21;;;;;;;17.27;8.87;;;;;;;3.40;100.00;97597.25;5087828;28;20201;-84
2021/01/02 03:44:49;;;;;;;16.67;8.40;;;;;;;3.47;100.00;97593.78;5088693;28;20199;-83
2021/01/02 03:47:15;;;;;;;16.73;8.90;;;;;;;3.45;100.00;97594.94;5087679;28;20234;-83
2021/01/02 03:49:42;;;;;;;14.30;8.77;;;;;;;3.34;100.00;97595.25;5080424;28;20204;-84
2021/01/02 03:52:09;;;;;;;15.03;8.13;;;;;;;3.34;100.00;97596.09;5078656;28;20313;-83
2021/01/02 03:54:36;;;;;;;16.10;9.17;;;;;;;3.22;100.00;97589.53;5078199;28;20220;-83
2021/01/02 03:57:03;;;;;;;15.50;8.47;;;;;;;3.16;100.00;97582.25;5074718;28;20214;-83
2021/01/02 03:59:30;;;;;;;18.73;8.40;;;;;;;3.15;100.00;97582.44;5083167;28;20212;-83
2021/01/02 04:01:58;;;;;;;17.27;8.33;;;;;;;3.18;100.00;97584.72;5092572;28;20212;-84
2021/01/02 04:04:26;;;;;;;18.60;8.83;;;;;;;3.30;100.00;97575.50;5095603;28;20209;-84
2021/01/02 04:06:53;;;;;;;21.13;9.53;;;;;;;3.30;100.00;97581.59;5094899;28;20223;-84
2021/01/02 04:09:20;;;;;;;18.57;9.17;;;;;;;3.37;100.00;97581.75;5095934;28;20225;-83
2021/01/02 04:11:47;;;;;;;18.00;8.53;;;;;;;3.24;100.00;97584.06;5093959;28;20273;-83
2021/01/02 04:14:15;;;;;;;17.30;9.00;;;;;;;3.16;100.00;97592.00;5093855;28;20213;-84
2021/01/02 04:16:43;;;;;;;21.37;9.63;;;;;;;3.24;100.00;97586.69;5096114;28;20245;-84
2021/01/02 04:19:11;;;;;;;19.53;9.40;;;;;;;3.19;100.00;97595.13;5097043;28;20197;-83
2021/01/02 04:21:38;;;;;;;18.57;9.03;;;;;;;3.25;100.00;97588.38;5096007;28;20482;-84
2021/01/02 04:24:06;;;;;;;17.27;8.57;;;;;;;3.22;100.00;97586.06;5096509;28;20281;-84
2021/01/02 04:26:34;;;;;;;20.13;9.07;;;;;;;3.31;100.00;97588.50;5096428;28;20209;-83
2021/01/02 04:29:00;;;;;;;16.23;9.00;;;;;;;3.06;100.00;97586.88;5093736;28;20206;-84
2021/01/02 04:31:33;;;;;;;19.13;8.83;;;;;;;3.13;100.00;97590.50;5092605;28;20635;-84
2021/01/02 04:34:00;;;;;;;18.07;9.10;;;;;;;2.98;100.00;97596.59;5084450;28;20198;-84
2021/01/02 04:36:28;;;;;;;20.17;9.40;;;;;;;3.02;100.00;97600.56;5078635;28;20568;-83
2021/01/02 04:38:55;;;;;;;21.20;9.07;;;;;;;3.04;100.00;97599.41;5077381;28;20197;-84
2021/01/02 04:41:22;;;;;;;17.30;8.90;;;;;;;3.20;100.00;97603.88;5071408;28;20707;-84
2021/01/02 04:43:50;;;;;;;16.83;9.73;;;;;;;2.88;100.00;97604.66;5075967;28;20205;-83
2021/01/02 04:46:17;;;;;;;18.00;8.97;;;;;;;3.03;100.00;97600.41;5075324;28;20248;-83
2021/01/02 04:48:45;;;;;;;20.93;10.57;;;;;;;2.89;100.00;97608.94;5077710;28;20197;-83
2021/01/02 04:51:13;;;;;;;19.73;9.20;;;;;;;2.92;100.00;97605.16;5081031;28;20205;-84
2021/01/02 04:53:41;;;;;;;18.67;9.63;;;;;;;2.91;100.00;97609.63;5076260;28;20246;-83
2021/01/02 04:56:09;;;;;;;15.70;8.27;;;;;;;2.89;100.00;97605.50;5071654;28;20199;-83
2021/01/02 04:58:37;;;;;;;18.57;8.83;;;;;;;2.93;100.00;97615.53;5075525;28;20270;-83
2021/01/02 05:01:05;;;;;;;16.03;8.97;;;;;;;2.82;100.00;97599.22;5074929;28;20197;-84
2021/01/02 05:03:34;;;;;;;17.97;8.77;;;;;;;2.79;100.00;97605.63;5072228;28;20201;-84
2021/01/02 05:06:01;;;;;;;17.63;8.10;;;;;;;2.96;100.00;97603.84;5073529;28;20217;-83
2021/01/02 05:08:28;;;;;;;17.23;8.63;;;;;;;2.73;100.00;97608.91;5075319;28;20228;-83
2021/01/02 05:10:59;;;;;;;16.83;8.83;;;;;;;2.71;100.00;97612.69;5073359;28;20204;-84
2021/01/02 05:13:30;;;;;;;15.37;8.50;;;;;;;2.85;100.00;97610.25;5075403;28;20202;-83
2021/01/02 05:16:12;;;;;;;17.70;8.33;;;;;;;2.78;100.00;97614.53;5075512;28;20242;-83
2021/01/02 05:18:55;;;;;;;15.23;8.30;;;;;;;2.71;100.00;97616.16;5075201;28;20207;-83
2021/01/02 05:21:22;;;;;;;17.47;8.63;;;;;;;2.82;100.00;97617.66;5076988;28;20238;-83
2021/01/02 05:24:20;;;;;;;17.60;8.97;;;;;;;2.84;100.00;97627.03;5076949;28;20680;-83
2021/01/02 05:26:56;;;;;;;17.23;8.37;;;;;;;2.76;100.00;97621.78;5012720;28;20222;-85
2021/01/02 05:29:24;;;;;;;16.90;9.00;;;;;;;2.87;100.00;97618.84;5064723;28;20197;-83
2021/01/02 05:31:52;;;;;;;18.10;8.70;;;;;;;2.69;100.00;97617.31;5075751;28;20197;-83
2021/01/02 05:34:21;;;;;;;16.80;8.87;;;;;;;2.70;100.00;97624.22;5076104;28;20200;-83
2021/01/02 05:36:54;;;;;;;19.37;8.93;;;;;;;2.72;100.00;97615.19;5075297;28;20754;-83
2021/01/02 05:39:34;;;;;;;18.90;9.37;;;;;;;2.67;100.00;97624.53;5071985;28;20388;-83
2021/01/02 05:42:02;;;;;;;19.03;8.93;;;;;;;2.87;100.00;97612.72;5075237;28;20196;-83
2021/01/02 05:44:33;;;;;;;19.17;9.43;;;;;;;2.83;100.00;97625.41;5075875;28;20197;-83
2021/01/02 05:47:00;;;;;;;19.67;9.00;;;;;;;2.78;100.00;97619.78;5076512;28;20217;-84
2021/01/02 05:49:37;;;;;;;20.77;8.63;;;;;;;2.87;100.00;97621.47;5075767;28;20219;-83
2021/01/02 05:52:06;;;;;;;21.50;9.97;;;;;;;2.93;100.00;97619.97;5076145;28;20234;-82
2021/01/02 05:54:34;;;;;;;20.57;9.70;;;;;;;2.73;100.00;97623.88;5076210;28;20205;-84
2021/01/02 05:57:04;;;;;;;22.47;10.53;;;;;;;2.90;100.00;97636.94;5079594;28;20589;-82
2021/01/02 05:59:32;;;;;;;20.23;9.37;;;;;;;2.68;100.00;97629.66;5088989;28;20264;-82
2021/01/02 06:02:14;;;;;;;26.93;11.10;;;;;;;2.72;100.00;97633.63;5087521;28;20211;-83
2021/01/02 06:04:57;;;;;;;25.47;10.60;;;;;;;2.65;100.00;97635.22;5081762;28;20260;-83
2021/01/02 06:07:24;;;;;;;27.67;10.83;;;;;;;2.60;100.00;97631.44;5074881;28;20666;-83
2021/01/02 06:09:52;;;;;;;26.50;11.83;;;;;;;2.77;100.00;97625.22;5078379;28;20710;-84
2021/01/02 06:12:29;;;;;;;31.20;11.60;;;;;;;2.80;100.00;97622.28;5077173;28;20653;-83
2021/01/02 06:14:57;;;;;;;32.20;12.67;;;;;;;2.94;100.00;97624.25;5076039;28;20202;-82
2021/01/02 06:17:32;;;;;;;39.20;13.40;;;;;;;2.78;100.00;97626.88;5072927;28;20289;-83
2021/01/02 06:20:01;;;;;;;33.90;12.23;;;;;;;2.70;100.00;97621.59;5074323;28;20214;-83
2021/01/02 06:22:29;;;;;;;34.83;13.33;;;;;;;2.48;100.00;97619.53;5074867;28;20340;-83
2021/01/02 06:24:56;;;;;;;33.87;12.50;;;;;;;2.67;100.00;97621.91;5078310;28;20213;-83
2021/01/02 06:27:23;;;;;;;32.17;13.03;;;;;;;2.45;100.00;97617.25;5075589;28;20689;-82
2021/01/02 06:29:52;;;;;;;33.13;12.07;;;;;;;2.48;100.00;97623.00;5078373;28;20216;-83
2021/01/02 06:32:20;;;;;;;28.13;11.53;;;;;;;2.31;100.00;97618.69;5078208;28;20212;-83
2021/01/02 06:35:18;;;;;;;29.37;11.17;;;;;;;2.53;100.00;97631.25;5078628;28;20211;-83
2021/01/02 06:38:12;;;;;;;32.97;11.67;;;;;;;2.62;100.00;97635.56;5079738;28;20221;-83
2021/01/02 06:40:41;;;;;;;24.47;10.43;;;;;;;2.78;100.00;97629.50;5082028;28;20214;-83
2021/01/02 06:43:11;;;;;;;26.90;10.90;;;;;;;2.92;100.00;97627.06;5080677;28;20199;-82
2021/01/02 06:45:54;;;;;;;28.70;10.97;;;;;;;2.88;100.00;97630.19;5084543;28;20239;-83
2021/01/02 06:48:48;;;;;;;28.37;10.67;;;;;;;2.55;100.00;97621.38;5092097;28;20216;-82
2021/01/02 06:51:31;;;;;;;23.37;9.93;;;;;;;2.71;100.00;97625.88;5055207;28;20267;-82
2021/01/02 06:53:59;;;;;;;23.73;10.20;;;;;;;2.69;100.00;97618.13;5081068;28;20309;-82
2021/01/02 06:56:33;;;;;;;24.73;10.60;;;;;;;2.89;100.00;97624.75;5076287;28;20236;-82
2021/01/02 06:59:02;;;;;;;29.90;11.43;;;;;;;2.45;100.00;97625.16;5076047;28;20545;-83
2021/01/02 07:01:42;;;;;;;20.20;10.00;;;;;;;2.61;100.00;97628.66;5072560;28;20205;-82
2021/01/02 07:04:10;;;;;;;25.17;10.13;;;;;;;2.38;100.00;97638.13;5075668;28;20249;-82
2021/01/02 07:06:44;;;;;;;27.17;10.13;;;;;;;2.67;100.00;97630.66;5075847;28;20217;-83
2021/01/02 07:09:27;;;;;;;29.10;11.17;;;;;;;2.51;100.00;97643.78;5075602;28;20219;-82
2021/01/02 07:12:11;;;;;;;29.63;11.70;;;;;;;2.67;100.00;97642.97;5077326;28;20192;-84
2021/01/02 07:14:40;;;;;;;32.20;11.00;;;;;;;2.55;100.00;97647.72;5070481;28;20197;-84
2021/01/02 07:17:10;;;;;;;24.37;10.33;;;;;;;2.71;100.00;97650.41;5077808;28;20374;-86
2021/01/02 07:19:45;;;;;;;27.00;11.37;;;;;;;2.77;100.00;97657.66;5074700;28;20230;-85
2021/01/02 07:22:26;;;;;;;28.03;11.73;;;;;;;2.94;100.00;97650.59;5077607;28;20188;-85
2021/01/02 07:25:04;;;;;;;29.80;11.27;;;;;;;2.57;100.00;97658.09;5070685;28;20210;-84
2021/01/02 07:27:33;;;;;;;27.60;10.83;;;;;;;2.76;100.00;97656.03;5073394;28;20231;-85
2021/01/02 07:30:05;;;;;;;27.43;11.07;;;;;;;2.68;100.00;97650.72;5075431;28;20255;-85
2021/01/02 07:32:33;;;;;;;26.73;10.70;;;;;;;2.66;100.00;97657.97;5077953;28;20189;-82
2021/01/02 07:35:01;;;;;;;24.47;10.60;;;;;;;2.73;100.00;97658.13;5081021;28;20221;-83
2021/01/02 07:37:30;;;;;;;23.27;10.67;;;;;;;2.67;100.00;97662.25;5078208;28;20220;-81
2021/01/02 07:39:58;;;;;;;28.27;11.63;;;;;;;2.89;100.00;97660.84;5079260;28;20205;-85
2021/01/02 07:42:26;;;;;;;27.50;11.20;;;;;;;2.77;100.00;97659.47;5078674;28;20614;-81
2021/01/02 07:44:59;;;;;;;25.50;11.00;;;;;;;2.55;100.00;97650.34;5079234;28;20206;-80
2021/01/02 07:47:27;;;;;;;31.93;11.43;;;;;;;2.68;100.00;97649.88;5077895;28;20224;-85
2021/01/02 07:50:07;;;;;;;28.47;11.60;;;;;;;2.49;100.00;97651.00;5077844;28;20197;-85
2021/01/02 07:52:34;;;;;;;25.07;11.60;;;;;;;2.54;100.00;97648.69;5075211;28;20196;-85
2021/01/02 07:55:08;;;;;;;27.87;11.37;;;;;;;2.66;100.00;97646.59;5076691;28;20204;-85
2021/01/02 07:57:35;;;;;;;30.87;12.50;;;;;;;2.39;100.00;97655.56;5077025;28;20213;-86
2021/01/02 08:00:02;;;;;;;35.77;12.87;;;;;;;2.63;100.00;97655.66;5078584;28;20283;-85
2021/01/02 08:02:29;;;;;;;29.30;11.23;;;;;;;2.93;100.00;97649.78;5078611;28;20191;-80
2021/01/02 08:04:56;;;;;;;32.55;12.73;;;;;;;2.83;100.00;97659.66;5079792;28;20451;-81
2021/01/02 08:07:23;;;;;;;31.83;12.40;;;;;;;2.74;100.00;97667.72;5078103;28;20561;-88
2021/01/02 08:09:50;;;;;;;31.00;12.50;;;;;;;2.54;100.00;97667.13;5070644;28;20264;-85
2021/01/02 08:12:18;;;;;;;30.07;10.97;;;;;;;2.84;100.00;97658.66;5075642;28;20293;-80
2021/01/02 08:14:46;;;;;;;34.23;11.10;;;;;;;2.99;100.00;97657.03;5067980;28;20212;-79
2021/01/02 08:17:14;;;;;;;27.43;11.43;;;;;;;3.06;100.00;97657.22;5070641;28;20223;-82
2021/01/02 08:19:56;;;;;;;24.93;11.23;;;;;;;3.03;100.00;97657.53;5079511;28;20205;-80
2021/01/02 08:22:35;;;;;;;27.77;11.30;;;;;;;2.96;100.00;97646.00;5075632;28;20569;-80
2021/01/02 08:25:04;;;;;;;27.07;10.93;;;;;;;3.06;100.00;97650.13;5078769;28;20201;-80
2021/01/02 08:27:31;;;;;;;27.33;11.17;;;;;;;2.92;100.00;97650.78;5075283;28;20315;-80
2021/01/02 08:30:02;;;;;;;21.90;10.43;;;;;;;3.12;100.00;97648.66;5076522;28;20234;-80
2021/01/02 08:32:30;;;;;;;28.27;11.90;;;;;;;3.30;100.00;97651.97;5083395;28;20185;-80
2021/01/02 08:34:58;;;;;;;29.83;11.23;;;;;;;3.41;100.00;97652.44;5079219;28;20204;-81
2021/01/02 08:37:25;;;;;;;29.87;11.53;;;;;;;3.46;100.00;97650.16;5078839;28;20213;-83
2021/01/02 08:40:06;;;;;;;25.30;10.83;;;;;;;3.00;100.00;97652.63;5081975;28;20274;-82
2021/01/02 08:42:37;;;;;;;27.13;11.10;;;;;;;3.10;100.00;97659.38;5082270;28;20194;-82
2021/01/02 08:45:06;;;;;;;26.50;10.37;;;;;;;3.21;100.00;97653.75;5075654;28;20216;-84
2021/01/02 08:47:33;;;;;;;30.30;11.67;;;;;;;3.19;100.00;97658.38;5074241;28;20311;-80
2021/01/02 08:50:10;;;;;;;30.73;11.83;;;;;;;3.32;100.00;97653.47;5079501;28;20204;-82
2021/01/02 08:52:37;;;;;;;31.20;10.87;;;;;;;3.24;100.00;97660.53;5075141;28;20572;-86
2021/01/02 08:55:13;;;;;;;25.83;10.47;;;;;;;2.95;100.00;97653.06;5080828;28;20261;-79
2021/01/02 08:57:45;;;;;;;30.57;12.83;;;;;;;3.11;100.00;97655.72;5072385;28;20296;-78
2021/01/02 09:00:20;;;;;;;23.63;10.47;;;;;;;2.59;100.00;97659.59;5077827;28;20201;-80
2021/01/02 09:02:49;;;;;;;34.03;12.40;;;;;;;2.79;100.00;97658.31;5074990;28;20239;-81
2021/01/02 09:05:25;;;;;;;29.17;12.27;;;;;;;2.74;100.00;97662.44;5075952;28;20211;-85
2021/01/02 09:07:56;;;;;;;27.40;11.00;;;;;;;2.89;100.00;97659.00;5074724;28;20220;-78
2021/01/02 09:10:27;;;;;;;31.67;12.67;;;;;;;2.73;100.00;97671.31;5074975;28;20208;-78
2021/01/02 09:13:08;;;;;;;27.90;12.23;;;;;;;2.88;100.00;97661.78;5074273;28;20777;-82
2021/01/02 09:15:57;;;;;;;25.13;11.07;;;;;;;2.92;100.00;97663.97;5074820;28;20228;-78
2021/01/02 09:18:44;;;;;;;24.33;11.10;;;;;;;3.23;100.00;97664.16;5070609;28;20693;-77
2021/01/02 09:21:25;;;;;;;27.47;10.70;;;;;;;3.09;100.00;97664.78;5071414;28;20205;-80
2021/01/02 09:23:53;;;;;;;23.97;10.67;;;;;;;3.11;100.00;97674.19;5070466;28;20209;-75
2021/01/02 09:26:22;;;;;;;35.83;12.53;;;;;;;2.98;100.00;97668.56;5069223;28;20221;-76
2021/01/02 09:28:50;;;;;;;26.17;11.27;;;;;;;3.15;100.00;97669.44;5070758;28;20658;-79
2021/01/02 09:31:17;;;;;;;24.23;11.20;;;;;;;3.09;100.00;97673.53;5074078;28;20205;-77
2021/01/02 09:33:44;;;;;;;26.53;11.30;;;;;;;2.93;100.00;97665.59;5075409;28;20675;-79
2021/01/02 09:36:13;;;;;;;23.60;10.27;;;;;;;3.18;100.00;97662.03;5073946;28;20203;-79
2021/01/02 09:38:41;;;;;;;26.43;10.63;;;;;;;3.52;100.00;97665.34;5079470;28;20228;-77
2021/01/02 09:41:09;;;;;;;24.67;10.87;;;;;;;3.54;100.00;97665.16;5070196;28;20201;-80
2021/01/02 09:43:36;;;;;;;24.70;10.73;;;;;;;3.28;100.00;97670.59;5075982;28;20198;-79
2021/01/02 09:46:03;;;;;;;22.73;10.67;;;;;;;3.45;100.00;97660.88;5074689;28;20323;-79
2021/01/02 09:48:30;;;;;;;22.53;10.97;;;;;;;3.21;100.00;97680.13;5072016;28;20230;-81
2021/01/02 09:50:57;;;;;;;27.17;9.73;;;;;;;3.44;100.00;97677.69;5076361;28;20226;-81
2021/01/02 09:53:24;;;;;;;24.20;10.87;;;;;;;3.58;100.00;97683.13;5079404;28;20709;-80
2021/01/02 09:55:51;;;;;;;22.40;10.60;;;;;;;3.38;100.00;97692.38;5075555;28;20213;-81
2021/01/02 09:58:19;;;;;;;23.10;9.87;;;;;;;3.37;100.00;97690.72;5076703;28;20224;-79
2021/01/02 10:00:46;;;;;;;22.33;10.23;;;;;;;3.45;100.00;97680.16;5076994;28;20682;-79
2021/01/02 10:03:12;;;;;;;22.83;10.93;;;;;;;3.22;100.00;97691.50;5068345;28;20203;-81
2021/01/02 10:05:39;;;;;;;22.33;10.20;;;;;;;3.42;100.00;97698.97;5073701;28;20217;-81
2021/01/02 10:08:06;;;;;;;25.43;10.33;;;;;;;3.58;100.00;97688.41;5079298;28;20231;-82
2021/01/02 10:10:33;;;;;;;19.67;9.90;;;;;;;3.61;100.00;97688.06;5077508;28;20205;-81
2021/01/02 10:13:00;;;;;;;22.97;10.33;;;;;;;3.60;100.00;97680.34;5075645;28;20591;-80
2021/01/02 10:15:28;;;;;;;21.93;9.93;;;;;;;3.95;100.00;97675.50;5080400;28;20215;-80
2021/01/02 10:17:55;;;;;;;20.67;10.33;;;;;;;3.32;100.00;97676.38;5081223;28;20245;-77
2021/01/02 10:20:22;;;;;;;18.40;9.00;;;;;;;3.75;100.00;97670.72;5081154;28;20200;-78
2021/01/02 10:22:49;;;;;;;19.73;10.00;;;;;;;3.70;100.00;97673.03;5071671;28;20654;-78
2021/01/02 10:25:16;;;;;;;19.17;9.40;;;;;;;3.69;100.00;97679.31;5079279;28;20218;-79
2021/01/02 10:27:43;;;;;;;18.73;9.57;;;;;;;3.45;100.00;97672.25;5080229;28;20557;-87
2021/01/02 10:30:12;;;;;;;19.90;9.27;;;;;;;3.72;100.00;97663.97;5079547;28;20222;-80
2021/01/02 10:32:40;;;;;;;20.23;9.43;;;;;;;3.95;100.00;97658.81;5081073;28;20238;-85
2021/01/02 10:35:09;;;;;;;18.90;9.33;;;;;;;3.75;100.00;97653.09;5082319;28;20208;-82
2021/01/02 10:37:36;;;;;;;18.07;8.60;;;;;;;3.56;100.00;97647.34;5082490;28;20227;-80
2021/01/02 10:40:04;;;;;;;22.10;9.43;;;;;;;3.80;100.00;97637.59;5083857;28;20213;-81
2021/01/02 10:42:32;;;;;;;20.07;8.87;;;;;;;4.17;100.00;97642.28;5089341;28;20240;-80
2021/01/02 10:45:00;;;;;;;18.03;8.67;;;;;;;4.03;100.00;97641.19;5085727;28;20275;-81
2021/01/02 10:47:30;;;;;;;17.67;8.17;;;;;;;4.07;100.00;97637.19;5091506;28;20221;-81
2021/01/02 10:49:58;;;;;;;17.27;7.87;;;;;;;4.15;100.00;97628.41;5092624;28;20277;-78
2021/01/02 10:52:26;;;;;;;16.27;8.50;;;;;;;4.29;100.00;97625.91;5089206;28;20253;-80
2021/01/02 10:54:54;;;;;;;20.00;9.37;;;;;;;4.12;100.00;97624.28;5085145;28;20262;-81
2021/01/02 10:57:24;;;;;;;16.90;8.63;;;;;;;4.25;100.00;97621.94;5079295;28;20255;-85
2021/01/02 10:59:52;;;;;;;14.23;7.70;;;;;;;4.25;100.00;97623.75;5082339;28;20217;-85
2021/01/02 11:02:20;;;;;;;14.60;8.03;;;;;;;3.71;100.00;97633.31;5082837;28;20205;-85
2021/01/02 11:04:47;;;;;;;15.97;7.73;;;;;;;3.65;100.00;97622.63;5081856;28;20214;-82
2021/01/02 11:07:15;;;;;;;14.43;7.60;;;;;;;3.76;100.00;97614.34;5075575;28;20228;-83
2021/01/02 11:09:44;;;;;;;17.30;9.30;;;;;;;3.25;100.00;97618.19;5078791;28;20205;-89
2021/01/02 11:12:11;;;;;;;21.23;8.83;;;;;;;3.75;100.00;97613.50;5072403;28;20256;-88
2021/01/02 11:14:41;;;;;;;17.77;8.30;;;;;;;4.00;100.00;97599.25;5084041;28;20197;-90
2021/01/02 11:17:08;;;;;;;14.70;7.80;;;;;;;3.94;100.00;97592.03;5082915;28;20213;-86
2021/01/02 11:19:35;;;;;;;15.80;7.77;;;;;;;3.63;100.00;97595.56;5081696;28;20221;-86
2021/01/02 11:22:04;;;;;;;16.53;7.83;;;;;;;4.16;100.00;97583.34;5080161;28;20207;-80
2021/01/02 11:24:33;;;;;;;17.80;7.93;;;;;;;4.02;100.00;97578.78;5079164;28;20206;-79
2021/01/02 11:27:01;;;;;;;16.73;8.40;;;;;;;3.68;100.00;97582.69;5077885;28;20228;-82
2021/01/02 11:29:30;;;;;;;15.50;7.80;;;;;;;3.53;100.00;97576.47;5074948;28;20206;-75
2021/01/02 11:31:57;;;;;;;14.37;8.00;;;;;;;3.48;100.00;97587.53;5074261;28;20206;-77
2021/01/02 11:34:24;;;;;;;15.87;8.00;;;;;;;3.58;100.00;97584.69;5073578;28;20221;-74
2021/01/02 11:36:53;;;;;;;17.63;8.37;;;;;;;3.56;100.00;97584.06;5074549;28;20270;-79
2021/01/02 11:39:21;;;;;;;17.80;8.93;;;;;;;3.52;100.00;97580.94;5071746;28;20638;-74
2021/01/02 11:41:49;;;;;;;16.03;8.50;;;;;;;3.48;100.00;97591.97;5071741;28;20232;-72